createdAt,value
2023-05-19T00:00:28.035Z,0.00
2023-05-19T00:01:28.026Z,0.00
2023-05-19T00:02:28.832Z,0.00
2023-05-19T00:03:28.128Z,0.00
2023-05-19T00:04:27.989Z,0.00
2023-05-19T00:05:28.066Z,0.00
2023-05-19T00:06:27.985Z,0.00
2023-05-19T00:07:27.950Z,0.00
2023-05-19T00:08:27.969Z,0.00
2023-05-19T00:09:27.930Z,0.00
2023-05-19T00:10:27.924Z,0.00
2023-05-19T00:11:27.927Z,0.00
2023-05-19T00:12:27.896Z,0.00
2023-05-19T00:13:27.919Z,0.00
2023-05-19T00:14:27.873Z,0.00
2023-05-19T00:15:27.853Z,0.00
2023-05-19T00:16:27.987Z,0.00
2023-05-19T00:17:27.878Z,0.00
2023-05-19T00:18:27.852Z,0.00
2023-05-19T00:19:28.002Z,0.00
2023-05-19T00:20:27.809Z,0.00
2023-05-19T00:21:27.783Z,0.00
2023-05-19T00:22:27.779Z,0.00
2023-05-19T00:23:27.780Z,0.00
2023-05-19T00:24:27.773Z,0.00
2023-05-19T00:25:27.774Z,0.00
2023-05-19T00:26:27.736Z,0.00
2023-05-19T00:27:27.720Z,0.00
2023-05-19T00:28:27.721Z,0.00
2023-05-19T00:29:27.735Z,0.00
2023-05-19T00:30:27.689Z,0.00
2023-05-19T00:31:27.766Z,0.00
2023-05-19T00:32:27.690Z,0.00
2023-05-19T00:33:27.706Z,0.00
2023-05-19T00:34:27.669Z,0.00
2023-05-19T00:35:27.625Z,0.00
2023-05-19T00:36:27.624Z,0.00
2023-05-19T00:37:27.613Z,0.00
2023-05-19T00:38:27.598Z,0.00
2023-05-19T00:39:27.606Z,0.00
2023-05-19T00:40:27.614Z,0.00
2023-05-19T00:41:27.578Z,0.00
2023-05-19T00:42:27.554Z,0.00
2023-05-19T00:43:27.540Z,0.00
2023-05-19T00:44:27.534Z,0.00
2023-05-19T00:45:27.523Z,0.00
2023-05-19T00:46:27.557Z,0.00
2023-05-19T00:47:27.507Z,0.00
2023-05-19T00:48:27.488Z,0.00
2023-05-19T00:49:27.506Z,0.00
2023-05-19T00:50:27.458Z,0.00
2023-05-19T00:51:27.477Z,0.00
2023-05-19T00:52:27.442Z,0.00
2023-05-19T00:53:39.419Z,0.00
2023-05-19T00:54:27.440Z,0.00
2023-05-19T00:55:27.398Z,0.00
2023-05-19T00:56:27.425Z,0.00
2023-05-19T00:57:27.393Z,0.00
2023-05-19T00:58:27.373Z,0.00
2023-05-19T00:59:27.389Z,0.00
2023-05-19T01:00:27.354Z,0.00
2023-05-19T01:01:27.427Z,0.00
2023-05-19T01:02:27.416Z,0.00
2023-05-19T01:03:27.404Z,0.00
2023-05-19T01:04:27.301Z,0.00
2023-05-19T01:05:27.289Z,0.00
2023-05-19T01:06:27.274Z,0.00
2023-05-19T01:07:27.286Z,0.00
2023-05-19T01:08:27.271Z,0.00
2023-05-19T01:09:27.239Z,0.00
2023-05-19T01:10:27.232Z,0.00
2023-05-19T01:11:27.218Z,0.00
2023-05-19T01:12:27.253Z,0.00
2023-05-19T01:13:27.207Z,0.00
2023-05-19T01:14:27.204Z,0.00
2023-05-19T01:15:27.193Z,0.00
2023-05-19T01:16:27.178Z,0.00
2023-05-19T01:17:27.191Z,0.00
2023-05-19T01:18:27.154Z,0.00
2023-05-19T01:19:27.165Z,0.00
2023-05-19T01:20:27.107Z,0.00
2023-05-19T01:21:27.111Z,0.00
2023-05-19T01:22:27.091Z,0.00
2023-05-19T01:23:27.082Z,0.00
2023-05-19T01:24:27.081Z,0.00
2023-05-19T01:25:27.059Z,0.00
2023-05-19T01:26:27.038Z,0.00
2023-05-19T01:27:27.047Z,0.00
2023-05-19T01:28:27.039Z,0.00
2023-05-19T01:29:27.058Z,0.00
2023-05-19T01:30:27.017Z,0.00
2023-05-19T01:31:27.004Z,0.00
2023-05-19T01:32:27.010Z,0.00
2023-05-19T01:33:26.966Z,0.00
2023-05-19T01:34:26.963Z,0.00
2023-05-19T01:35:26.944Z,0.00
2023-05-19T01:36:26.934Z,0.00
2023-05-19T01:37:26.924Z,0.00
2023-05-19T01:38:26.901Z,0.00
2023-05-19T01:39:26.917Z,0.00
2023-05-19T01:40:26.904Z,0.00
2023-05-19T01:41:26.874Z,0.00
2023-05-19T01:42:26.862Z,0.00
2023-05-19T01:43:26.871Z,0.00
2023-05-19T01:44:26.984Z,0.00
2023-05-19T01:45:26.852Z,0.00
2023-05-19T01:46:26.889Z,0.00
2023-05-19T01:47:26.826Z,0.00
2023-05-19T01:48:26.787Z,0.00
2023-05-19T01:49:26.800Z,0.00
2023-05-19T01:50:26.782Z,0.00
2023-05-19T01:51:26.764Z,0.00
2023-05-19T01:52:26.747Z,0.00
2023-05-19T01:53:26.747Z,0.00
2023-05-19T01:54:26.739Z,0.00
2023-05-19T01:55:26.751Z,0.00
2023-05-19T01:56:26.697Z,0.00
2023-05-19T01:57:26.718Z,0.00
2023-05-19T01:58:26.677Z,0.00
2023-05-19T01:59:26.678Z,0.00
2023-05-19T02:00:26.713Z,0.00
2023-05-19T02:01:26.694Z,0.00
2023-05-19T02:02:26.681Z,0.00
2023-05-19T02:03:26.657Z,0.00
2023-05-19T02:04:26.658Z,0.00
2023-05-19T02:05:26.607Z,0.00
2023-05-19T02:06:26.585Z,0.00
2023-05-19T02:07:26.599Z,0.00
2023-05-19T02:08:26.594Z,0.00
2023-05-19T02:09:26.560Z,0.00
2023-05-19T02:10:26.541Z,0.00
2023-05-19T02:11:26.534Z,0.00
2023-05-19T02:12:26.528Z,0.00
2023-05-19T02:13:26.534Z,0.00
2023-05-19T02:14:26.734Z,0.00
2023-05-19T02:15:26.498Z,0.00
2023-05-19T02:16:26.574Z,0.00
2023-05-19T02:17:26.485Z,0.00
2023-05-19T02:18:26.482Z,0.00
2023-05-19T02:19:26.475Z,0.00
2023-05-19T02:20:26.420Z,0.00
2023-05-19T02:21:26.438Z,0.00
2023-05-19T02:22:26.395Z,0.00
2023-05-19T02:23:26.408Z,0.00
2023-05-19T02:24:26.394Z,0.00
2023-05-19T02:25:26.375Z,0.00
2023-05-19T02:26:26.379Z,0.00
2023-05-19T02:27:26.365Z,0.00
2023-05-19T02:28:26.331Z,0.00
2023-05-19T02:29:26.331Z,0.00
2023-05-19T02:30:26.307Z,0.00
2023-05-19T02:31:26.320Z,0.00
2023-05-19T02:32:26.382Z,0.00
2023-05-19T02:33:26.292Z,0.00
2023-05-19T02:34:26.288Z,0.00
2023-05-19T02:35:26.273Z,0.00
2023-05-19T02:36:26.234Z,0.00
2023-05-19T02:37:26.227Z,0.00
2023-05-19T02:38:26.211Z,0.00
2023-05-19T02:39:26.207Z,0.00
2023-05-19T02:40:26.208Z,0.00
2023-05-19T02:41:26.179Z,0.00
2023-05-19T02:42:26.203Z,0.00
2023-05-19T02:43:26.170Z,0.00
2023-05-19T02:44:26.165Z,0.00
2023-05-19T02:45:26.138Z,0.00
2023-05-19T02:46:26.185Z,4.00
2023-05-19T02:47:26.167Z,4.00
2023-05-19T02:48:26.297Z,0.00
2023-05-19T02:49:26.093Z,0.00
2023-05-19T02:50:26.074Z,4.00
2023-05-19T02:51:26.091Z,4.00
2023-05-19T02:52:26.050Z,4.00
2023-05-19T02:53:26.054Z,4.00
2023-05-19T02:54:26.034Z,4.00
2023-05-19T02:55:26.024Z,4.00
2023-05-19T02:56:26.021Z,4.00
2023-05-19T02:57:26.000Z,8.00
2023-05-19T02:58:26.019Z,8.00
2023-05-19T02:59:25.975Z,12.00
2023-05-19T03:00:25.969Z,12.00
2023-05-19T03:01:25.966Z,12.00
2023-05-19T03:02:26.003Z,12.00
2023-05-19T03:03:26.035Z,12.00
2023-05-19T03:04:25.928Z,16.00
2023-05-19T03:05:25.910Z,16.00
2023-05-19T03:06:25.883Z,16.00
2023-05-19T03:07:25.903Z,16.00
2023-05-19T03:08:25.881Z,20.00
2023-05-19T03:09:25.879Z,20.00
2023-05-19T03:10:25.855Z,24.00
2023-05-19T03:11:25.861Z,24.00
2023-05-19T03:12:25.846Z,28.00
2023-05-19T03:13:25.817Z,28.00
2023-05-19T03:14:25.797Z,28.00
2023-05-19T03:15:25.796Z,32.00
2023-05-19T03:16:25.826Z,32.00
2023-05-19T03:17:25.901Z,36.00
2023-05-19T03:18:25.792Z,36.00
2023-05-19T03:19:25.813Z,44.00
2023-05-19T03:20:25.762Z,44.00
2023-05-19T03:21:25.798Z,52.00
2023-05-19T03:22:25.711Z,56.00
2023-05-19T03:23:25.706Z,64.00
2023-05-19T03:24:25.713Z,68.00
2023-05-19T03:25:25.682Z,80.00
2023-05-19T03:26:25.672Z,92.00
2023-05-19T03:27:25.659Z,100.00
2023-05-19T03:28:25.644Z,108.00
2023-05-19T03:29:25.662Z,120.00
2023-05-19T03:30:25.627Z,136.00
2023-05-19T03:31:25.619Z,148.00
2023-05-19T03:32:25.668Z,164.00
2023-05-19T03:33:25.655Z,168.00
2023-05-19T03:34:25.602Z,176.00
2023-05-19T03:35:25.571Z,180.00
2023-05-19T03:36:25.725Z,188.00
2023-05-19T03:37:25.550Z,184.00
2023-05-19T03:38:25.529Z,192.00
2023-05-19T03:39:25.534Z,196.00
2023-05-19T03:40:25.509Z,208.00
2023-05-19T03:41:25.528Z,220.00
2023-05-19T03:42:25.485Z,236.00
2023-05-19T03:43:25.504Z,264.00
2023-05-19T03:44:25.467Z,288.00
2023-05-19T03:45:25.465Z,324.00
2023-05-19T03:46:25.516Z,364.00
2023-05-19T03:47:25.541Z,408.00
2023-05-19T03:48:25.435Z,452.00
2023-05-19T03:49:25.422Z,496.00
2023-05-19T03:50:25.398Z,536.00
2023-05-19T03:51:25.397Z,572.00
2023-05-19T03:52:25.412Z,608.00
2023-05-19T03:53:25.365Z,636.00
2023-05-19T03:54:25.350Z,660.00
2023-05-19T03:55:26.963Z,672.00
2023-05-19T03:56:25.334Z,672.00
2023-05-19T03:57:25.347Z,672.00
2023-05-19T03:58:25.302Z,676.00
2023-05-19T03:59:25.316Z,680.00
2023-05-19T04:00:25.285Z,684.00
2023-05-19T04:01:25.281Z,684.00
2023-05-19T04:02:25.377Z,688.00
2023-05-19T04:03:25.323Z,692.00
2023-05-19T04:04:25.327Z,696.00
2023-05-19T04:05:25.238Z,704.00
2023-05-19T04:06:25.229Z,724.00
2023-05-19T04:07:25.224Z,752.00
2023-05-19T04:08:26.254Z,776.00
2023-05-19T04:09:25.182Z,788.00
2023-05-19T04:10:25.166Z,804.00
2023-05-19T04:11:25.255Z,832.00
2023-05-19T04:12:25.151Z,868.00
2023-05-19T04:13:25.136Z,920.00
2023-05-19T04:14:25.123Z,976.00
2023-05-19T04:15:25.128Z,1016.00
2023-05-19T04:16:25.307Z,1056.00
2023-05-19T04:17:25.167Z,1092.00
2023-05-19T04:18:26.301Z,1120.00
2023-05-19T04:19:25.115Z,1144.00
2023-05-19T04:20:25.048Z,1156.00
2023-05-19T04:21:25.070Z,1164.00
2023-05-19T04:22:25.024Z,1156.00
2023-05-19T04:23:25.025Z,1144.00
2023-05-19T04:24:25.028Z,1148.00
2023-05-19T04:25:25.023Z,1152.00
2023-05-19T04:26:25.113Z,1188.00
2023-05-19T04:27:25.168Z,1236.00
2023-05-19T04:28:24.960Z,1276.00
2023-05-19T04:29:24.975Z,1300.00
2023-05-19T04:30:24.935Z,1292.00
2023-05-19T04:31:24.965Z,1300.00
2023-05-19T04:32:24.951Z,1300.00
2023-05-19T04:33:24.904Z,1300.00
2023-05-19T04:34:24.907Z,1308.00
2023-05-19T04:35:24.898Z,1292.00
2023-05-19T04:36:24.869Z,1244.00
2023-05-19T04:37:24.857Z,1196.00
2023-05-19T04:38:24.840Z,1160.00
2023-05-19T04:39:24.840Z,1132.00
2023-05-19T04:40:24.989Z,1100.00
2023-05-19T04:41:24.827Z,1104.00
2023-05-19T04:42:24.816Z,1136.00
2023-05-19T04:43:24.801Z,1188.00
2023-05-19T04:44:24.784Z,1252.00
2023-05-19T04:45:24.787Z,1356.00
2023-05-19T04:46:24.773Z,1456.00
2023-05-19T04:47:24.769Z,1532.00
2023-05-19T04:48:24.725Z,1552.00
2023-05-19T04:49:24.727Z,1564.00
2023-05-19T04:50:24.738Z,1596.00
2023-05-19T04:51:24.698Z,1604.00
2023-05-19T04:52:24.686Z,1604.00
2023-05-19T04:53:24.677Z,1568.00
2023-05-19T04:54:24.658Z,1536.00
2023-05-19T04:55:24.676Z,1520.00
2023-05-19T04:56:24.679Z,1504.00
2023-05-19T04:57:24.645Z,1540.00
2023-05-19T04:58:24.610Z,1592.00
2023-05-19T04:59:24.602Z,1680.00
2023-05-19T05:00:24.594Z,1724.00
2023-05-19T05:01:24.651Z,1780.00
2023-05-19T05:02:24.684Z,1872.00
2023-05-19T05:03:24.696Z,1948.00
2023-05-19T05:04:24.544Z,2012.00
2023-05-19T05:05:24.553Z,2112.00
2023-05-19T05:06:24.521Z,2180.00
2023-05-19T05:07:24.532Z,2160.00
2023-05-19T05:08:24.486Z,2108.00
2023-05-19T05:09:24.481Z,2008.00
2023-05-19T05:10:24.487Z,1908.00
2023-05-19T05:11:24.463Z,1824.00
2023-05-19T05:12:24.476Z,1736.00
2023-05-19T05:13:24.468Z,1672.00
2023-05-19T05:14:24.444Z,1644.00
2023-05-19T05:15:24.420Z,1656.00
2023-05-19T05:16:24.457Z,1660.00
2023-05-19T05:17:24.461Z,1640.00
2023-05-19T05:18:24.380Z,1628.00
2023-05-19T05:19:24.402Z,1680.00
2023-05-19T05:20:24.370Z,1700.00
2023-05-19T05:21:24.366Z,1644.00
2023-05-19T05:22:24.330Z,1580.00
2023-05-19T05:23:24.333Z,1516.00
2023-05-19T05:24:24.312Z,1452.00
2023-05-19T05:25:24.310Z,1408.00
2023-05-19T05:26:24.312Z,1384.00
2023-05-19T05:27:24.281Z,1376.00
2023-05-19T05:28:24.282Z,1424.00
2023-05-19T05:29:24.250Z,1512.00
2023-05-19T05:30:24.235Z,1592.00
2023-05-19T05:31:24.260Z,1660.00
2023-05-19T05:32:24.795Z,1744.00
2023-05-19T05:33:24.384Z,1844.00
2023-05-19T05:34:24.195Z,1960.00
2023-05-19T05:35:24.185Z,2064.00
2023-05-19T05:36:24.192Z,2176.00
2023-05-19T05:37:24.160Z,2288.00
2023-05-19T05:38:24.154Z,2360.00
2023-05-19T05:39:24.137Z,2388.00
2023-05-19T05:40:24.142Z,2400.00
2023-05-19T05:41:24.148Z,2444.00
2023-05-19T05:42:24.123Z,2552.00
2023-05-19T05:43:24.134Z,2672.00
2023-05-19T05:44:24.173Z,2824.00
2023-05-19T05:45:24.085Z,2964.00
2023-05-19T05:46:24.081Z,3128.00
2023-05-19T05:47:24.045Z,3272.00
2023-05-19T05:48:24.085Z,3476.00
2023-05-19T05:49:24.042Z,3688.00
2023-05-19T05:50:24.018Z,3892.00
2023-05-19T05:51:23.999Z,4076.00
2023-05-19T05:52:23.994Z,4228.00
2023-05-19T05:53:23.976Z,4244.00
2023-05-19T05:54:23.989Z,4224.00
2023-05-19T05:55:23.960Z,4164.00
2023-05-19T05:56:23.958Z,4060.00
2023-05-19T05:57:23.956Z,3876.00
2023-05-19T05:58:23.925Z,3664.00
2023-05-19T05:59:23.919Z,3544.00
2023-05-19T06:00:23.938Z,3492.00
2023-05-19T06:01:24.001Z,3516.00
2023-05-19T06:02:23.929Z,3548.00
2023-05-19T06:03:23.966Z,3604.00
2023-05-19T06:04:23.868Z,3660.00
2023-05-19T06:05:23.910Z,3696.00
2023-05-19T06:06:23.842Z,3700.00
2023-05-19T06:07:23.854Z,3724.00
2023-05-19T06:08:23.820Z,3752.00
2023-05-19T06:09:23.817Z,3728.00
2023-05-19T06:10:23.832Z,3668.00
2023-05-19T06:11:23.769Z,3596.00
2023-05-19T06:12:23.772Z,3488.00
2023-05-19T06:13:23.785Z,3304.00
2023-05-19T06:14:23.744Z,3112.00
2023-05-19T06:15:23.752Z,2996.00
2023-05-19T06:16:23.806Z,2960.00
2023-05-19T06:17:23.705Z,2968.00
2023-05-19T06:18:23.702Z,2980.00
2023-05-19T06:19:23.775Z,2968.00
2023-05-19T06:20:23.690Z,2984.00
2023-05-19T06:21:23.702Z,3020.00
2023-05-19T06:22:23.673Z,3044.00
2023-05-19T06:23:23.652Z,3068.00
2023-05-19T06:24:23.651Z,3124.00
2023-05-19T06:25:23.617Z,3184.00
2023-05-19T06:26:23.609Z,3308.00
2023-05-19T06:27:23.592Z,3440.00
2023-05-19T06:28:23.610Z,3556.00
2023-05-19T06:29:23.570Z,3664.00
2023-05-19T06:30:23.558Z,3760.00
2023-05-19T06:31:23.552Z,3900.00
2023-05-19T06:32:23.628Z,4068.00
2023-05-19T06:33:23.780Z,4252.00
2023-05-19T06:34:23.521Z,4336.00
2023-05-19T06:35:23.540Z,4312.00
2023-05-19T06:36:23.519Z,4184.00
2023-05-19T06:37:23.478Z,4084.00
2023-05-19T06:38:23.476Z,4108.00
2023-05-19T06:39:23.464Z,4184.00
2023-05-19T06:40:23.452Z,4284.00
2023-05-19T06:41:23.570Z,4440.00
2023-05-19T06:42:23.715Z,4552.00
2023-05-19T06:43:23.427Z,4580.00
2023-05-19T06:44:23.402Z,4804.00
2023-05-19T06:45:23.440Z,4504.00
2023-05-19T06:46:23.534Z,4464.00
2023-05-19T06:47:23.405Z,4488.00
2023-05-19T06:48:23.415Z,4392.00
2023-05-19T06:49:23.342Z,4420.00
2023-05-19T06:50:23.351Z,4504.00
2023-05-19T06:51:23.347Z,4772.00
2023-05-19T06:52:23.313Z,4924.00
2023-05-19T06:53:23.289Z,4124.00
2023-05-19T06:54:23.292Z,3832.00
2023-05-19T06:55:23.318Z,4360.00
2023-05-19T06:56:23.286Z,4128.00
2023-05-19T06:57:23.249Z,4172.00
2023-05-19T06:58:23.255Z,4276.00
2023-05-19T06:59:23.259Z,4392.00
2023-05-19T07:00:24.147Z,4748.00
2023-05-19T07:01:23.242Z,4752.00
2023-05-19T07:02:23.224Z,4676.00
2023-05-19T07:03:23.230Z,4452.00
2023-05-19T07:04:23.193Z,4072.00
2023-05-19T07:05:23.219Z,3612.00
2023-05-19T07:06:23.172Z,3352.00
2023-05-19T07:07:23.172Z,3540.00
2023-05-19T07:08:23.226Z,3196.00
2023-05-19T07:09:24.044Z,3724.00
2023-05-19T07:10:23.212Z,3516.00
2023-05-19T07:11:23.252Z,3112.00
2023-05-19T07:12:23.158Z,3088.00
2023-05-19T07:13:24.801Z,3544.00
2023-05-19T07:14:23.067Z,3552.00
2023-05-19T07:15:23.046Z,3780.00
2023-05-19T07:16:23.097Z,4056.00
2023-05-19T07:17:23.049Z,4268.00
2023-05-19T07:18:23.025Z,3876.00
2023-05-19T07:19:23.108Z,3764.00
2023-05-19T07:20:23.027Z,3784.00
2023-05-19T07:21:23.016Z,3820.00
2023-05-19T07:22:22.968Z,3756.00
2023-05-19T07:23:23.434Z,3672.00
2023-05-19T07:24:22.943Z,3628.00
2023-05-19T07:25:22.981Z,3500.00
2023-05-19T07:26:22.960Z,3596.00
2023-05-19T07:27:22.938Z,3796.00
2023-05-19T07:28:22.950Z,3992.00
2023-05-19T07:29:22.879Z,3940.00
2023-05-19T07:30:22.877Z,3872.00
2023-05-19T07:31:22.945Z,3868.00
2023-05-19T07:32:22.953Z,3736.00
2023-05-19T07:33:22.967Z,3668.00
2023-05-19T07:34:22.822Z,3624.00
2023-05-19T07:35:22.836Z,3404.00
2023-05-19T07:36:24.258Z,3468.00
2023-05-19T07:37:22.804Z,3528.00
2023-05-19T07:38:22.783Z,3652.00
2023-05-19T07:39:22.800Z,3764.00
2023-05-19T07:40:22.811Z,3508.00
2023-05-19T07:41:22.754Z,3488.00
2023-05-19T07:42:22.752Z,3368.00
2023-05-19T07:43:22.728Z,3540.00
2023-05-19T07:44:23.369Z,3344.00
2023-05-19T07:45:22.722Z,3444.00
2023-05-19T07:46:22.802Z,3332.00
2023-05-19T07:47:22.671Z,3460.00
2023-05-19T07:48:22.661Z,3244.00
2023-05-19T07:49:22.654Z,3064.00
2023-05-19T07:50:22.673Z,2936.00
2023-05-19T07:51:22.630Z,2884.00
2023-05-19T07:52:22.680Z,2916.00
2023-05-19T07:53:22.692Z,3120.00
2023-05-19T07:54:22.595Z,3192.00
2023-05-19T07:55:22.613Z,3244.00
2023-05-19T07:56:22.592Z,3260.00
2023-05-19T07:57:22.591Z,3340.00
2023-05-19T07:58:22.577Z,3360.00
2023-05-19T07:59:22.556Z,3404.00
2023-05-19T08:00:22.546Z,3580.00
2023-05-19T08:01:22.539Z,3640.00
2023-05-19T08:02:22.717Z,3828.00
2023-05-19T08:03:22.691Z,3948.00
2023-05-19T08:04:22.531Z,4152.00
2023-05-19T08:05:22.488Z,3996.00
2023-05-19T08:06:22.484Z,4092.00
2023-05-19T08:07:22.451Z,4068.00
2023-05-19T08:08:22.512Z,4020.00
2023-05-19T08:09:22.439Z,4080.00
2023-05-19T08:10:22.422Z,3828.00
2023-05-19T08:11:22.418Z,3816.00
2023-05-19T08:12:22.507Z,4028.00
2023-05-19T08:13:22.369Z,3996.00
2023-05-19T08:14:22.383Z,3924.00
2023-05-19T08:15:22.399Z,3784.00
2023-05-19T08:16:22.487Z,3728.00
2023-05-19T08:17:22.375Z,3704.00
2023-05-19T08:18:22.324Z,3740.00
2023-05-19T08:19:22.422Z,3844.00
2023-05-19T08:20:22.312Z,4024.00
2023-05-19T08:21:22.297Z,4252.00
2023-05-19T08:22:22.332Z,4360.00
2023-05-19T08:23:22.284Z,4488.00
2023-05-19T08:24:22.286Z,4544.00
2023-05-19T08:25:22.253Z,4796.00
2023-05-19T08:26:22.235Z,4616.00
2023-05-19T08:27:22.222Z,4576.00
2023-05-19T08:28:22.233Z,4616.00
2023-05-19T08:29:22.200Z,4472.00
2023-05-19T08:30:22.186Z,4484.00
2023-05-19T08:31:22.322Z,4616.00
2023-05-19T08:32:22.252Z,4852.00
2023-05-19T08:33:22.212Z,4280.00
2023-05-19T08:34:22.146Z,4472.00
2023-05-19T08:35:22.151Z,4616.00
2023-05-19T08:36:22.128Z,4356.00
2023-05-19T08:37:22.119Z,4340.00
2023-05-19T08:38:22.115Z,4196.00
2023-05-19T08:39:22.085Z,4212.00
2023-05-19T08:40:22.107Z,4236.00
2023-05-19T08:41:22.087Z,4188.00
2023-05-19T08:42:22.169Z,4204.00
2023-05-19T08:43:22.045Z,4148.00
2023-05-19T08:44:22.033Z,4176.00
2023-05-19T08:45:22.019Z,4428.00
2023-05-19T08:46:22.052Z,4556.00
2023-05-19T08:47:22.027Z,4660.00
2023-05-19T08:48:21.986Z,4060.00
2023-05-19T08:49:24.183Z,4512.00
2023-05-19T08:50:21.969Z,3864.00
2023-05-19T08:51:22.437Z,4268.00
2023-05-19T08:52:21.953Z,4460.00
2023-05-19T08:53:32.456Z,3960.00
2023-05-19T08:54:22.917Z,3744.00
2023-05-19T08:55:21.913Z,3892.00
2023-05-19T08:56:21.911Z,3668.00
2023-05-19T08:57:21.872Z,3752.00
2023-05-19T08:58:21.867Z,3776.00
2023-05-19T08:59:21.866Z,3904.00
2023-05-19T09:00:21.889Z,3968.00
2023-05-19T09:01:21.856Z,3800.00
2023-05-19T09:02:21.845Z,3860.00
2023-05-19T09:03:23.874Z,3860.00
2023-05-19T09:04:21.890Z,3616.00
2023-05-19T09:05:21.842Z,3372.00
2023-05-19T09:06:21.793Z,3236.00
2023-05-19T09:07:21.755Z,3056.00
2023-05-19T09:08:21.751Z,3324.00
2023-05-19T09:09:21.731Z,3340.00
2023-05-19T09:10:21.752Z,3240.00
2023-05-19T09:11:21.730Z,3088.00
2023-05-19T09:12:21.734Z,3180.00
2023-05-19T09:13:21.684Z,3012.00
2023-05-19T09:14:21.729Z,3092.00
2023-05-19T09:15:21.667Z,3056.00
2023-05-19T09:16:21.719Z,3060.00
2023-05-19T09:17:21.668Z,3056.00
2023-05-19T09:18:21.660Z,3016.00
2023-05-19T09:19:21.686Z,3024.00
2023-05-19T09:20:21.616Z,2996.00
2023-05-19T09:21:21.610Z,3056.00
2023-05-19T09:22:21.591Z,3080.00
2023-05-19T09:23:21.569Z,3052.00
2023-05-19T09:24:21.593Z,2956.00
2023-05-19T09:25:21.572Z,2888.00
2023-05-19T09:26:21.546Z,2820.00
2023-05-19T09:27:21.548Z,2772.00
2023-05-19T09:28:21.562Z,2776.00
2023-05-19T09:29:21.509Z,2784.00
2023-05-19T09:30:21.511Z,2856.00
2023-05-19T09:31:21.491Z,2940.00
2023-05-19T09:32:21.553Z,2856.00
2023-05-19T09:33:21.497Z,2836.00
2023-05-19T09:34:21.480Z,2788.00
2023-05-19T09:35:21.448Z,2820.00
2023-05-19T09:36:21.440Z,2744.00
2023-05-19T09:37:21.413Z,2732.00
2023-05-19T09:38:21.410Z,2760.00
2023-05-19T09:39:21.427Z,2812.00
2023-05-19T09:40:21.395Z,2960.00
2023-05-19T09:41:21.366Z,3080.00
2023-05-19T09:42:21.381Z,2704.00
2023-05-19T09:43:21.341Z,3116.00
2023-05-19T09:44:21.470Z,3152.00
2023-05-19T09:45:22.481Z,3032.00
2023-05-19T09:46:21.338Z,3036.00
2023-05-19T09:47:21.355Z,3100.00
2023-05-19T09:48:21.291Z,3088.00
2023-05-19T09:49:21.298Z,3100.00
2023-05-19T09:50:21.263Z,3212.00
2023-05-19T09:51:21.277Z,3364.00
2023-05-19T09:52:21.275Z,3460.00
2023-05-19T09:53:21.235Z,3036.00
2023-05-19T09:54:21.238Z,3552.00
2023-05-19T09:55:21.225Z,2672.00
2023-05-19T09:56:21.195Z,3160.00
2023-05-19T09:57:21.194Z,2812.00
2023-05-19T09:58:21.173Z,3824.00
2023-05-19T09:59:21.188Z,3848.00
2023-05-19T10:00:21.177Z,3800.00
2023-05-19T10:01:21.220Z,3820.00
2023-05-19T10:02:21.136Z,3744.00
2023-05-19T10:03:21.148Z,3572.00
2023-05-19T10:04:21.107Z,3464.00
2023-05-19T10:05:21.137Z,3348.00
2023-05-19T10:06:21.116Z,3220.00
2023-05-19T10:07:21.097Z,3128.00
2023-05-19T10:08:21.057Z,3040.00
2023-05-19T10:09:21.071Z,3008.00
2023-05-19T10:10:21.040Z,2980.00
2023-05-19T10:11:21.048Z,3032.00
2023-05-19T10:12:21.027Z,2184.00
2023-05-19T10:13:21.023Z,2204.00
2023-05-19T10:14:21.019Z,3452.00
2023-05-19T10:15:29.894Z,3480.00
2023-05-19T10:16:22.080Z,3488.00
2023-05-19T10:17:20.960Z,3428.00
2023-05-19T10:18:20.966Z,3412.00
2023-05-19T10:19:23.864Z,3316.00
2023-05-19T10:20:20.938Z,3236.00
2023-05-19T10:21:20.945Z,3140.00
2023-05-19T10:22:20.903Z,3192.00
2023-05-19T10:23:20.923Z,3188.00
2023-05-19T10:24:20.875Z,3064.00
2023-05-19T10:25:20.881Z,3028.00
2023-05-19T10:26:20.850Z,2612.00
2023-05-19T10:27:20.850Z,2844.00
2023-05-19T10:28:20.850Z,3088.00
2023-05-19T10:29:20.854Z,2532.00
2023-05-19T10:30:20.812Z,2656.00
2023-05-19T10:31:20.832Z,2428.00
2023-05-19T10:32:20.911Z,2984.00
2023-05-19T10:33:20.850Z,2900.00
2023-05-19T10:34:20.765Z,3116.00
2023-05-19T10:35:20.784Z,2840.00
2023-05-19T10:36:20.740Z,3068.00
2023-05-19T10:37:20.735Z,2508.00
2023-05-19T10:38:20.746Z,2492.00
2023-05-19T10:39:20.712Z,2584.00
2023-05-19T10:40:20.693Z,2632.00
2023-05-19T10:41:20.691Z,2848.00
2023-05-19T10:42:20.674Z,2948.00
2023-05-19T10:43:20.690Z,2736.00
2023-05-19T10:44:20.652Z,3412.00
2023-05-19T10:45:20.656Z,3772.00
2023-05-19T10:46:20.683Z,2808.00
2023-05-19T10:47:20.671Z,2676.00
2023-05-19T10:48:20.654Z,2712.00
2023-05-19T10:49:20.598Z,2900.00
2023-05-19T10:50:20.604Z,3592.00
2023-05-19T10:51:20.592Z,3192.00
2023-05-19T10:52:20.562Z,3168.00
2023-05-19T10:53:20.555Z,4392.00
2023-05-19T10:54:20.543Z,4420.00
2023-05-19T10:55:20.556Z,4152.00
2023-05-19T10:56:20.518Z,3736.00
2023-05-19T10:57:20.547Z,3688.00
2023-05-19T10:58:20.491Z,3676.00
2023-05-19T10:59:20.492Z,3768.00
2023-05-19T11:00:20.468Z,3872.00
2023-05-19T11:01:20.475Z,3904.00
2023-05-19T11:02:20.581Z,3896.00
2023-05-19T11:03:20.451Z,3876.00
2023-05-19T11:04:20.479Z,3892.00
2023-05-19T11:05:20.445Z,3888.00
2023-05-19T11:06:20.404Z,3920.00
2023-05-19T11:07:20.423Z,3916.00
2023-05-19T11:08:20.416Z,3824.00
2023-05-19T11:09:31.099Z,3748.00
2023-05-19T11:10:21.623Z,3832.00
2023-05-19T11:11:20.352Z,4004.00
2023-05-19T11:12:20.341Z,4160.00
2023-05-19T11:13:20.360Z,4140.00
2023-05-19T11:14:20.315Z,3796.00
2023-05-19T11:15:20.318Z,3968.00
2023-05-19T11:16:20.301Z,4044.00
2023-05-19T11:17:20.300Z,4052.00
2023-05-19T11:18:20.272Z,4016.00
2023-05-19T11:19:20.337Z,3776.00
2023-05-19T11:20:20.264Z,3660.00
2023-05-19T11:21:20.312Z,3628.00
2023-05-19T11:22:20.220Z,3720.00
2023-05-19T11:23:20.294Z,3704.00
2023-05-19T11:24:20.208Z,3864.00
2023-05-19T11:25:20.192Z,3948.00
2023-05-19T11:26:20.200Z,3972.00
2023-05-19T11:27:20.217Z,3752.00
2023-05-19T11:28:20.291Z,3736.00
2023-05-19T11:29:20.155Z,4072.00
2023-05-19T11:30:20.276Z,4180.00
2023-05-19T11:31:20.141Z,4312.00
2023-05-19T11:32:20.247Z,4024.00
2023-05-19T11:33:20.201Z,3592.00
2023-05-19T11:34:20.083Z,3764.00
2023-05-19T11:35:20.078Z,3760.00
2023-05-19T11:36:20.151Z,3492.00
2023-05-19T11:37:20.052Z,3544.00
2023-05-19T11:38:20.054Z,3632.00
2023-05-19T11:39:20.068Z,3616.00
2023-05-19T11:40:20.018Z,3824.00
2023-05-19T11:41:20.882Z,4372.00
2023-05-19T11:42:20.002Z,4436.00
2023-05-19T11:43:19.986Z,4592.00
2023-05-19T11:44:19.966Z,4648.00
2023-05-19T11:45:19.983Z,3816.00
2023-05-19T11:46:20.025Z,3680.00
2023-05-19T11:47:19.941Z,3772.00
2023-05-19T11:48:19.948Z,3932.00
2023-05-19T11:49:19.927Z,3948.00
2023-05-19T11:50:19.922Z,3864.00
2023-05-19T11:51:19.914Z,4212.00
2023-05-19T11:52:20.441Z,5044.00
2023-05-19T11:53:20.117Z,5652.00
2023-05-19T11:54:19.904Z,4736.00
2023-05-19T11:55:19.887Z,5796.00
2023-05-19T11:56:22.402Z,5576.00
2023-05-19T11:57:19.846Z,5528.00
2023-05-19T11:58:19.811Z,5532.00
2023-05-19T11:59:19.814Z,5408.00
2023-05-19T12:00:19.784Z,5284.00
2023-05-19T12:01:19.793Z,4696.00
2023-05-19T12:02:19.827Z,3988.00
2023-05-19T12:03:19.810Z,5456.00
2023-05-19T12:04:19.735Z,5456.00
2023-05-19T12:05:19.808Z,3520.00
2023-05-19T12:06:19.823Z,4696.00
2023-05-19T12:07:19.712Z,3844.00
2023-05-19T12:08:19.711Z,5844.00
2023-05-19T12:09:19.688Z,5568.00
2023-05-19T12:10:19.689Z,3608.00
2023-05-19T12:11:20.116Z,3408.00
2023-05-19T12:12:19.690Z,4560.00
2023-05-19T12:13:19.660Z,4212.00
2023-05-19T12:14:19.628Z,3372.00
2023-05-19T12:15:19.648Z,3216.00
2023-05-19T12:16:19.665Z,5760.00
2023-05-19T12:17:19.599Z,3936.00
2023-05-19T12:18:19.580Z,5568.00
2023-05-19T12:19:19.628Z,3072.00
2023-05-19T12:20:19.586Z,5084.00
2023-05-19T12:21:19.553Z,5772.00
2023-05-19T12:22:19.540Z,4832.00
2023-05-19T12:23:19.552Z,5860.00
2023-05-19T12:24:19.551Z,5808.00
2023-05-19T12:25:19.547Z,5620.00